Hauptseite
METAR-TAF:

METAR-TAF

Flughäfen :

Prague, Tschechien

Prag 19

Breite: 50-07-17N, Länge: 14-32-37E, Höhe: 286 m

Beobachtung

Neuester Wetterbericht von vor 37 Minuten, um 11:00 UTC
Wind 4 kt aus unterschiedlichen Richtungen
Temperatur 10°C
Luftfeuchtigkeit 46%
Luftdruck 1028 hPa
Sichtweite 10 km oder mehr
keine Wolken unter 1500 m und keine Kumulonimbus oder Gewitterwolken

METAR: LKKB 251100Z VRB04KT CAVOK 10/M01 Q1028 NOSIG

Zeit: 12:37 (11:37 UTC)

Prognose

Neuester Wetterbericht von vor 6 Stunden und 37 Minuten, um 05:00 UTC
Gültige Prognose vom 25 um 06 UTC bis 26 um 06 UTC
Wind 2 kt aus unterschiedlichen Richtungen
Sichtweite 10 km oder mehr
keine Wolken unter 1500 m und keine Kumulonimbus oder Gewitterwolken
Übergehend zu
vom 25 um 08 UTC bis 25 um 10 UTC
Wind 6 kt aus Nord

TAF: LKKB 250500Z 2506/2606 VRB02KT CAVOK BECMG 2508/2510 35006KT

Wetterbeobachtungen und Prognosen von mehr als 4000 Flughäfen (METAR und TAF Bericht).

Die verfügbaren Stationen werden durch gelbe und rote Markierungen auf der Karte dargestellt.

Führen Sie die Maus auf sie, um den Namen der Station zu sehen.

Darauf klicken, um die Beobachtung von Wetterbeobachtungen und Prognosen zu sehen.

Um die Karte zu ändern : klicken Sie auf den grünen Tasten mit einem schwarzen Kreuz Zum Vergrößern, auf den grünen Button mit einem Gedankenstrich zu verkleinern, oder auf die grünen Pfeile für benachbarte Karten.


METAR-TAF: